Time;durP1;ratioP1;P1;durP2;ratioP2;P2;SDS_P1;SDS_P2;PMS_P1;PMS_P2;Temp;Humidity;BMP_temperature;BMP_pressure;BME280_temperature;BME280_humidity;BME280_pressure;Samples;Min_cycle;Max_cycle;Signal;HPM_P1;HPM_P2
2024/01/04 00:00:29;;;;;;;1.83;0.50;;;9.70;99.90;;;;;;5021693;28;20128;-64
2024/01/04 00:02:55;;;;;;;1.35;0.40;;;9.70;99.90;;;;;;5019859;28;20033;-64
2024/01/04 00:05:21;;;;;;;2.63;0.30;;;9.70;99.90;;;;;;5024996;28;20026;-64
2024/01/04 00:07:47;;;;;;;1.17;0.30;;;9.90;99.90;;;;;;5018496;28;20025;-64
2024/01/04 00:10:14;;;;;;;1.70;0.40;;;10.10;99.90;;;;;;5020022;28;20033;-64
2024/01/04 00:12:41;;;;;;;3.33;0.50;;;10.10;99.90;;;;;;5022681;28;20575;-63
2024/01/04 00:15:07;;;;;;;1.40;0.30;;;10.10;99.90;;;;;;5021817;28;20037;-64
2024/01/04 00:17:33;;;;;;;0.20;0.20;;;10.10;99.90;;;;;;5021255;28;20041;-64
2024/01/04 00:19:59;;;;;;;3.13;0.55;;;10.20;99.90;;;;;;5021638;28;20084;-64
2024/01/04 00:22:25;;;;;;;1.38;0.40;;;10.20;99.90;;;;;;5025477;28;20133;-65
2024/01/04 00:24:51;;;;;;;0.80;0.32;;;10.10;99.90;;;;;;5021916;28;20120;-64
2024/01/04 00:27:17;;;;;;;1.95;0.47;;;10.20;99.90;;;;;;5019924;28;20064;-64
2024/01/04 00:29:43;;;;;;;2.75;0.40;;;10.20;99.90;;;;;;5018810;28;20448;-64
2024/01/04 00:32:09;;;;;;;2.30;0.30;;;10.20;99.90;;;;;;5021382;28;20045;-64
2024/01/04 00:34:35;;;;;;;2.00;0.60;;;10.10;99.90;;;;;;5022081;28;20036;-64
2024/01/04 00:37:02;;;;;;;2.17;0.20;;;10.10;99.90;;;;;;5021220;28;20780;-64
2024/01/04 00:39:28;;;;;;;0.82;0.30;;;10.10;99.90;;;;;;5021332;28;20124;-64
2024/01/04 00:41:53;;;;;;;3.72;0.40;;;10.10;99.90;;;;;;5013246;28;20120;-63
2024/01/04 00:44:20;;;;;;;3.75;0.93;;;9.90;99.90;;;;;;5024640;28;20153;-64
2024/01/04 00:46:46;;;;;;;1.70;0.47;;;10.00;99.90;;;;;;5018819;28;20083;-64
2024/01/04 00:49:11;;;;;;;2.40;0.43;;;10.00;99.90;;;;;;5021337;28;20030;-64
2024/01/04 00:51:37;;;;;;;1.90;0.50;;;9.90;99.90;;;;;;5024063;28;20029;-64
2024/01/04 00:54:03;;;;;;;1.67;0.28;;;9.80;99.90;;;;;;5023492;28;20060;-64
2024/01/04 00:56:36;;;;;;;0.22;0.20;;;9.70;99.90;;;;;;5023946;28;20148;-64
2024/01/04 00:59:02;;;;;;;1.85;0.45;;;9.80;99.90;;;;;;5021358;28;20440;-64
2024/01/04 01:01:33;;;;;;;1.25;0.50;;;9.70;99.90;;;;;;5025135;28;20119;-64
2024/01/04 01:03:59;;;;;;;1.00;0.30;;;9.70;99.90;;;;;;5020004;28;20045;-64
2024/01/04 01:06:25;;;;;;;0.40;0.17;;;9.80;99.90;;;;;;5023974;28;20026;-64
2024/01/04 01:08:51;;;;;;;1.25;0.30;;;9.80;99.90;;;;;;5018074;28;20060;-64
2024/01/04 01:11:16;;;;;;;0.90;0.40;;;9.90;99.90;;;;;;5019848;28;20052;-63
2024/01/04 01:13:43;;;;;;;0.95;0.30;;;9.90;99.90;;;;;;5017014;28;20041;-64
2024/01/04 01:16:10;;;;;;;1.23;0.30;;;9.90;99.90;;;;;;5022761;28;20037;-63
2024/01/04 01:18:36;;;;;;;0.47;0.20;;;9.90;99.90;;;;;;5023311;28;20087;-63
2024/01/04 01:21:02;;;;;;;0.93;0.77;;;9.90;99.90;;;;;;5019861;28;20034;-64
2024/01/04 01:23:28;;;;;;;1.38;0.38;;;9.90;99.90;;;;;;5027648;28;20447;-63
2024/01/04 01:25:54;;;;;;;0.98;0.25;;;9.90;99.90;;;;;;5028040;28;20029;-64
2024/01/04 01:28:20;;;;;;;0.45;0.20;;;9.90;99.90;;;;;;5025414;28;20401;-64
2024/01/04 01:30:45;;;;;;;3.25;0.45;;;9.90;99.90;;;;;;5041372;28;20021;-64
2024/01/04 01:33:11;;;;;;;1.50;0.40;;;9.80;99.90;;;;;;5025786;28;20132;-64
2024/01/04 01:35:37;;;;;;;2.38;0.40;;;9.80;99.90;;;;;;5023231;28;20033;-64
2024/01/04 01:38:03;;;;;;;0.73;0.43;;;9.90;99.90;;;;;;5025799;28;20036;-64
2024/01/04 01:40:29;;;;;;;0.82;0.52;;;10.00;99.90;;;;;;5027611;28;20029;-64
2024/01/04 01:42:56;;;;;;;0.10;0.10;;;9.90;99.90;;;;;;5026105;28;20240;-64
2024/01/04 01:45:22;;;;;;;1.33;0.38;;;10.00;99.90;;;;;;5020406;28;20029;-64
2024/01/04 01:47:48;;;;;;;1.17;0.43;;;10.00;99.90;;;;;;5024109;28;20090;-64
2024/01/04 01:50:15;;;;;;;0.77;0.22;;;9.80;99.90;;;;;;5025990;28;20180;-64
2024/01/04 01:52:42;;;;;;;0.63;0.20;;;9.90;99.90;;;;;;5026963;28;20405;-64
2024/01/04 01:55:11;;;;;;;1.15;0.50;;;10.00;99.90;;;;;;5020788;28;20042;-64
2024/01/04 01:57:37;;;;;;;0.70;0.28;;;10.00;99.90;;;;;;5026292;28;20044;-64
2024/01/04 02:00:04;;;;;;;0.82;0.38;;;9.70;99.90;;;;;;5025194;28;20489;-64
2024/01/04 02:02:38;;;;;;;0.88;0.22;;;9.60;99.90;;;;;;5021177;28;20089;-64
2024/01/04 02:05:04;;;;;;;1.02;0.38;;;9.60;99.90;;;;;;5026985;28;20029;-63
2024/01/04 02:07:30;;;;;;;2.35;0.30;;;9.50;99.90;;;;;;5026222;28;20212;-64
2024/01/04 02:09:59;;;;;;;0.75;0.30;;;9.60;99.90;;;;;;5025078;28;20742;-64
2024/01/04 02:12:25;;;;;;;0.93;0.17;;;9.80;99.90;;;;;;5023982;28;20033;-64
2024/01/04 02:14:54;;;;;;;2.30;0.28;;;9.90;99.90;;;;;;5025929;28;20029;-64
2024/01/04 02:17:24;;;;;;;0.47;0.43;;;9.80;99.90;;;;;;5035639;28;20056;-64
2024/01/04 02:19:51;;;;;;;2.00;0.38;;;9.60;99.90;;;;;;5021536;28;20052;-64
2024/01/04 02:22:17;;;;;;;1.65;0.20;;;9.50;99.90;;;;;;5024913;28;20036;-64
2024/01/04 02:24:44;;;;;;;1.25;0.20;;;9.60;99.90;;;;;;5023588;28;20018;-64
2024/01/04 02:27:11;;;;;;;2.25;0.30;;;9.70;99.90;;;;;;5026237;28;20029;-64
2024/01/04 02:29:36;;;;;;;0.13;0.13;;;9.60;99.90;;;;;;5024952;28;20032;-63
2024/01/04 02:32:02;;;;;;;1.10;0.17;;;9.40;99.90;;;;;;5020431;28;20030;-64
2024/01/04 02:34:29;;;;;;;1.33;0.40;;;9.20;99.90;;;;;;5024278;28;20030;-63
2024/01/04 02:36:56;;;;;;;0.20;0.20;;;9.10;99.90;;;;;;5024336;28;20021;-64
2024/01/04 02:39:22;;;;;;;0.90;0.20;;;9.10;99.90;;;;;;5026572;28;20080;-61
2024/01/04 02:41:48;;;;;;;1.02;0.20;;;9.00;99.90;;;;;;5024271;28;20669;-61
2024/01/04 02:44:14;;;;;;;0.15;0.15;;;9.10;99.90;;;;;;5021416;28;20026;-60
2024/01/04 02:46:39;;;;;;;1.08;0.22;;;9.30;99.90;;;;;;5022033;28;20052;-61
2024/01/04 02:49:05;;;;;;;0.28;0.22;;;9.30;99.90;;;;;;5023904;28;20041;-61
2024/01/04 02:51:31;;;;;;;0.20;0.17;;;9.50;99.90;;;;;;5025322;28;20033;-63
2024/01/04 02:53:57;;;;;;;0.20;0.10;;;9.60;99.90;;;;;;5022994;28;20033;-64
2024/01/04 02:56:25;;;;;;;1.35;0.20;;;9.70;99.90;;;;;;5026361;28;20029;-64
2024/01/04 02:58:51;;;;;;;1.60;0.30;;;9.60;99.90;;;;;;5017615;28;20722;-64
2024/01/04 03:01:23;;;;;;;2.65;0.38;;;9.60;99.90;;;;;;5027296;28;20112;-64
2024/01/04 03:03:51;;;;;;;0.47;0.10;;;9.50;99.90;;;;;;5025079;28;20041;-64
2024/01/04 03:06:23;;;;;;;1.58;0.63;;;9.40;99.90;;;;;;5023117;28;20036;-64
2024/01/04 03:08:49;;;;;;;3.58;0.75;;;9.40;99.90;;;;;;5024300;28;20037;-63
2024/01/04 03:11:14;;;;;;;2.08;0.30;;;9.20;99.90;;;;;;5020295;28;20375;-64
2024/01/04 03:13:40;;;;;;;0.22;0.10;;;9.20;99.90;;;;;;5022503;28;20033;-64
2024/01/04 03:16:06;;;;;;;2.28;0.30;;;9.10;99.90;;;;;;5023145;28;20038;-64
2024/01/04 03:18:32;;;;;;;2.75;0.20;;;9.20;99.90;;;;;;5022030;28;20041;-64
2024/01/04 03:20:57;;;;;;;0.50;0.20;;;9.30;99.90;;;;;;5021914;28;20049;-64
2024/01/04 03:23:23;;;;;;;0.45;0.20;;;9.20;99.90;;;;;;5021828;28;20436;-64
2024/01/04 03:25:49;;;;;;;1.77;0.40;;;9.30;99.90;;;;;;5019765;28;20577;-64
2024/01/04 03:28:15;;;;;;;2.08;0.20;;;9.40;99.90;;;;;;5025392;28;20037;-63
2024/01/04 03:30:40;;;;;;;1.85;0.40;;;9.50;99.90;;;;;;5025079;28;20014;-64
2024/01/04 03:33:06;;;;;;;0.88;0.40;;;9.50;99.90;;;;;;5024213;28;20495;-64
2024/01/04 03:35:32;;;;;;;1.55;0.20;;;9.50;99.90;;;;;;5025618;28;20378;-64
2024/01/04 03:37:57;;;;;;;0.70;0.40;;;9.30;99.90;;;;;;5023779;28;20038;-64
2024/01/04 03:40:23;;;;;;;2.10;0.28;;;9.10;99.90;;;;;;5026409;28;20037;-64
2024/01/04 03:42:49;;;;;;;3.30;0.88;;;9.10;99.90;;;;;;5024111;28;20921;-64
2024/01/04 03:45:15;;;;;;;1.52;0.38;;;9.10;99.90;;;;;;5024171;28;20124;-64
2024/01/04 03:47:40;;;;;;;1.85;0.25;;;9.20;99.90;;;;;;5026659;28;20022;-64
2024/01/04 03:50:07;;;;;;;0.43;0.30;;;9.30;99.90;;;;;;5018802;28;20030;-62
2024/01/04 03:52:32;;;;;;;0.35;0.32;;;9.30;99.90;;;;;;5025432;28;20037;-64
2024/01/04 03:54:58;;;;;;;0.52;0.25;;;9.40;99.90;;;;;;5020829;28;20112;-63
2024/01/04 03:57:24;;;;;;;0.90;0.30;;;9.40;99.90;;;;;;5023111;28;20644;-64
2024/01/04 03:59:50;;;;;;;0.13;0.10;;;9.50;99.90;;;;;;5025378;28;20034;-64
2024/01/04 04:02:15;;;;;;;0.28;0.28;;;9.30;99.90;;;;;;5020487;28;20099;-64
2024/01/04 04:04:41;;;;;;;1.48;0.30;;;9.20;99.90;;;;;;5037059;28;20029;-64
2024/01/04 04:07:07;;;;;;;0.25;0.25;;;9.20;99.90;;;;;;5024647;28;20095;-64
2024/01/04 04:09:33;;;;;;;3.22;0.40;;;9.10;99.90;;;;;;5026449;28;20041;-64
2024/01/04 04:11:58;;;;;;;2.08;0.35;;;9.10;99.90;;;;;;5021664;28;20125;-64
2024/01/04 04:14:24;;;;;;;1.65;0.30;;;9.10;99.90;;;;;;5024956;28;20060;-64
2024/01/04 04:16:50;;;;;;;0.50;0.40;;;9.20;99.90;;;;;;5022983;28;20031;-64
2024/01/04 04:19:16;;;;;;;3.75;0.40;;;9.30;99.90;;;;;;5026504;28;20112;-64
2024/01/04 04:21:41;;;;;;;0.65;0.40;;;9.40;99.90;;;;;;5022313;28;20029;-64
2024/01/04 04:24:07;;;;;;;1.27;0.22;;;9.50;99.90;;;;;;5024067;28;20045;-63
2024/01/04 04:26:33;;;;;;;0.10;0.10;;;9.50;99.90;;;;;;5024519;28;20029;-64
2024/01/04 04:28:59;;;;;;;0.73;0.30;;;9.60;99.90;;;;;;5023753;28;20068;-64
2024/01/04 04:31:27;;;;;;;0.52;0.40;;;9.70;99.90;;;;;;5022095;28;20033;-64
2024/01/04 04:33:53;;;;;;;0.40;0.30;;;9.70;99.90;;;;;;5022681;28;20037;-63
2024/01/04 04:36:19;;;;;;;2.25;0.40;;;9.80;99.90;;;;;;5022813;28;20037;-64
2024/01/04 04:38:45;;;;;;;1.73;0.32;;;9.70;99.90;;;;;;5021094;28;20039;-64
2024/01/04 04:41:10;;;;;;;1.67;0.50;;;9.70;99.90;;;;;;5021534;28;20469;-64
2024/01/04 04:43:36;;;;;;;3.38;0.73;;;9.60;99.90;;;;;;5022323;28;20033;-64
2024/01/04 04:46:08;;;;;;;1.05;0.60;;;9.60;99.90;;;;;;5022471;28;20030;-64
2024/01/04 04:48:34;;;;;;;1.38;0.40;;;9.50;99.90;;;;;;5025166;28;20104;-63
2024/01/04 04:51:00;;;;;;;0.80;0.60;;;9.60;99.90;;;;;;5018690;28;20083;-64
2024/01/04 04:53:26;;;;;;;2.13;0.40;;;9.60;99.90;;;;;;5022211;28;20755;-64
2024/01/04 04:55:52;;;;;;;0.65;0.60;;;9.50;99.90;;;;;;5019081;28;20037;-64
2024/01/04 04:58:17;;;;;;;1.05;0.60;;;9.40;99.90;;;;;;5024132;28;20029;-64
2024/01/04 05:00:43;;;;;;;3.35;0.88;;;9.40;99.90;;;;;;5022143;28;20076;-64
2024/01/04 05:03:09;;;;;;;0.80;0.50;;;9.40;99.90;;;;;;5020801;28;20065;-63
2024/01/04 05:05:35;;;;;;;0.90;0.60;;;9.40;99.90;;;;;;5023786;28;20033;-64
2024/01/04 05:08:03;;;;;;;1.30;0.68;;;9.30;99.90;;;;;;5025361;28;20160;-64
2024/01/04 05:10:28;;;;;;;0.50;0.50;;;9.30;99.90;;;;;;5018172;28;20038;-64
2024/01/04 05:12:54;;;;;;;0.50;0.50;;;9.10;99.90;;;;;;5022697;28;20039;-64
2024/01/04 05:15:20;;;;;;;0.50;0.50;;;9.10;99.90;;;;;;5016138;28;20072;-64
2024/01/04 05:17:45;;;;;;;2.25;0.90;;;9.20;99.90;;;;;;5025769;28;20033;-64
2024/01/04 05:20:12;;;;;;;0.80;0.73;;;9.20;99.90;;;;;;5022974;28;20029;-64
2024/01/04 05:22:39;;;;;;;6.25;3.05;;;9.30;99.90;;;;;;5016327;28;20041;-64
2024/01/04 05:25:05;;;;;;;6.85;3.67;;;9.20;99.90;;;;;;5022741;28;20021;-64
2024/01/04 05:27:31;;;;;;;6.13;3.42;;;9.10;99.90;;;;;;5019178;28;20124;-64
2024/01/04 05:29:56;;;;;;;5.97;2.65;;;9.10;99.90;;;;;;5021849;28;20228;-64
2024/01/04 05:32:22;;;;;;;18.02;12.02;;;9.00;99.90;;;;;;5023766;28;20037;-64
2024/01/04 05:34:48;;;;;;;7.15;5.93;;;9.10;99.90;;;;;;5019511;28;20026;-64
2024/01/04 05:37:14;;;;;;;2.33;1.63;;;9.20;99.90;;;;;;5023488;28;20041;-64
2024/01/04 05:39:41;;;;;;;5.38;2.70;;;9.30;99.90;;;;;;5022654;28;20027;-63
2024/01/04 05:42:07;;;;;;;4.72;1.42;;;9.30;99.90;;;;;;5023306;28;20042;-63
2024/01/04 05:44:33;;;;;;;0.98;0.90;;;9.40;99.90;;;;;;5024771;28;20034;-64
2024/01/04 05:46:59;;;;;;;1.20;1.10;;;9.50;99.90;;;;;;5023624;28;20030;-64
2024/01/04 05:49:25;;;;;;;3.67;1.50;;;9.60;99.90;;;;;;5019643;28;20025;-64
2024/01/04 05:51:50;;;;;;;2.60;2.00;;;9.60;99.90;;;;;;5017752;28;20034;-64
2024/01/04 05:54:16;;;;;;;2.28;1.70;;;9.50;99.90;;;;;;5022050;28;20114;-64
2024/01/04 05:56:44;;;;;;;2.35;2.00;;;9.40;99.90;;;;;;5021018;28;20017;-64
2024/01/04 05:59:10;;;;;;;7.90;4.07;;;9.20;99.90;;;;;;5019118;28;20041;-64
2024/01/04 06:01:38;;;;;;;2.75;1.88;;;9.20;99.90;;;;;;5018501;28;20158;-64
2024/01/04 06:04:04;;;;;;;3.00;1.15;;;9.20;99.90;;;;;;5023551;28;20076;-64
2024/01/04 06:06:30;;;;;;;3.90;0.77;;;9.30;99.90;;;;;;5024896;28;20496;-64
2024/01/04 06:08:56;;;;;;;1.20;1.00;;;9.40;99.90;;;;;;5019834;28;20029;-64
2024/01/04 06:11:21;;;;;;;2.33;1.60;;;9.40;99.90;;;;;;5027227;28;20036;-64
2024/01/04 06:13:47;;;;;;;3.17;1.48;;;9.50;99.90;;;;;;5026120;28;20036;-64
2024/01/04 06:16:13;;;;;;;3.08;1.48;;;9.40;99.90;;;;;;5023588;28;20117;-64
2024/01/04 06:18:39;;;;;;;2.88;1.55;;;9.40;99.90;;;;;;5024170;28;20045;-64
2024/01/04 06:21:05;;;;;;;2.55;1.30;;;9.40;99.90;;;;;;5023140;28;20045;-64
2024/01/04 06:23:31;;;;;;;0.93;0.77;;;9.40;99.90;;;;;;5022828;28;20504;-64
2024/01/04 06:25:57;;;;;;;2.80;1.27;;;9.30;99.90;;;;;;5024459;28;20025;-64
2024/01/04 06:28:23;;;;;;;0.85;0.80;;;9.30;99.90;;;;;;5028606;28;20045;-64
2024/01/04 06:30:50;;;;;;;2.30;0.90;;;9.30;99.90;;;;;;5025547;28;20038;-64
2024/01/04 06:33:17;;;;;;;0.80;0.55;;;9.40;99.90;;;;;;5024400;28;20698;-64
2024/01/04 06:35:43;;;;;;;1.35;1.23;;;9.50;99.90;;;;;;5024413;28;20501;-64
2024/01/04 06:38:09;;;;;;;2.22;0.88;;;9.50;99.90;;;;;;5028062;28;20481;-64
2024/01/04 06:40:39;;;;;;;1.20;0.85;;;9.50;99.90;;;;;;5024537;28;20026;-64
2024/01/04 06:43:08;;;;;;;2.05;0.90;;;9.60;99.90;;;;;;5026068;28;20029;-64
2024/01/04 06:45:38;;;;;;;2.15;0.63;;;9.60;99.90;;;;;;5025524;28;20030;-64
2024/01/04 06:48:04;;;;;;;1.60;0.60;;;9.60;99.90;;;;;;5021444;28;20178;-61
2024/01/04 06:50:30;;;;;;;0.60;0.60;;;9.50;99.90;;;;;;5024537;28;20890;-61
2024/01/04 06:52:56;;;;;;;1.02;0.50;;;9.40;99.90;;;;;;5018872;28;20120;-61
2024/01/04 06:55:23;;;;;;;1.33;1.08;;;9.40;99.90;;;;;;5023088;28;20087;-61
2024/01/04 06:57:49;;;;;;;0.82;0.60;;;9.50;99.90;;;;;;5023851;28;20051;-61
2024/01/04 07:00:15;;;;;;;3.70;0.80;;;9.30;99.90;;;;;;5020073;28;20119;-61
2024/01/04 07:02:41;;;;;;;0.20;0.20;;;9.10;99.90;;;;;;5022249;28;20033;-60
2024/01/04 07:05:09;;;;;;;2.88;1.15;;;8.80;99.90;;;;;;5020861;28;20072;-61
2024/01/04 07:07:36;;;;;;;2.20;1.48;;;8.60;99.90;;;;;;5020371;28;20144;-61
2024/01/04 07:10:02;;;;;;;5.32;1.00;;;8.40;99.90;;;;;;5023404;28;20029;-60
2024/01/04 07:12:28;;;;;;;2.47;1.02;;;8.30;99.90;;;;;;5025378;28;20464;-62
2024/01/04 07:14:55;;;;;;;1.80;0.40;;;8.40;99.90;;;;;;5020123;28;20025;-60
2024/01/04 07:17:22;;;;;;;4.28;1.10;;;8.40;99.90;;;;;;5023380;28;20444;-60
2024/01/04 07:19:48;;;;;;;5.25;1.15;;;8.30;99.90;;;;;;5016923;28;20045;-61
2024/01/04 07:22:15;;;;;;;1.65;1.30;;;8.10;99.90;;;;;;5007896;28;20050;-59
2024/01/04 07:24:41;;;;;;;1.48;0.80;;;8.00;99.90;;;;;;5020584;28;20475;-62
2024/01/04 07:27:08;;;;;;;3.83;1.30;;;8.00;99.90;;;;;;5020300;28;20489;-60
2024/01/04 07:29:35;;;;;;;2.25;0.82;;;8.10;99.90;;;;;;5024143;28;20381;-61
2024/01/04 07:32:01;;;;;;;0.90;0.45;;;8.10;99.90;;;;;;5018299;28;20045;-60
2024/01/04 07:34:27;;;;;;;1.58;0.32;;;8.10;99.90;;;;;;5018538;28;20033;-61
2024/01/04 07:36:52;;;;;;;0.70;0.40;;;8.20;99.90;;;;;;5020909;28;20120;-61
2024/01/04 07:39:18;;;;;;;1.85;0.65;;;8.20;99.90;;;;;;5020723;28;20128;-62
2024/01/04 07:41:44;;;;;;;3.95;0.30;;;8.20;99.90;;;;;;5021162;28;20032;-60
2024/01/04 07:44:11;;;;;;;0.30;0.30;;;8.10;99.90;;;;;;5017978;28;20029;-60
2024/01/04 07:46:37;;;;;;;0.43;0.38;;;8.10;99.90;;;;;;5031586;28;20032;-61
2024/01/04 07:49:07;;;;;;;1.05;0.90;;;8.00;99.90;;;;;;5022976;28;20565;-60
2024/01/04 07:51:37;;;;;;;0.63;0.20;;;7.90;99.90;;;;;;5019786;28;20491;-60
2024/01/04 07:54:02;;;;;;;1.00;0.50;;;7.90;99.90;;;;;;5018333;28;20079;-60
2024/01/04 07:56:28;;;;;;;0.80;0.45;;;7.70;99.90;;;;;;5020091;28;20041;-61
2024/01/04 07:58:54;;;;;;;0.68;0.25;;;7.70;99.90;;;;;;5016569;28;20044;-61
2024/01/04 08:01:20;;;;;;;1.27;0.32;;;7.80;99.90;;;;;;5020830;28;20036;-61
2024/01/04 08:03:45;;;;;;;1.30;0.73;;;7.70;99.90;;;;;;5019810;28;20029;-61
2024/01/04 08:06:11;;;;;;;0.75;0.57;;;7.80;99.90;;;;;;5020973;28;20145;-60
2024/01/04 08:08:37;;;;;;;5.93;4.13;;;7.70;99.90;;;;;;5025588;28;20355;-61
2024/01/04 08:11:03;;;;;;;6.63;1.65;;;7.70;99.90;;;;;;5019992;28;20041;-61
2024/01/04 08:13:29;;;;;;;7.90;3.90;;;7.80;99.90;;;;;;5017619;28;20079;-60
2024/01/04 08:15:55;;;;;;;2.67;1.08;;;7.90;99.90;;;;;;5022410;28;20061;-61
2024/01/04 08:18:21;;;;;;;5.13;2.38;;;7.80;99.90;;;;;;5017885;28;20040;-61
2024/01/04 08:20:47;;;;;;;7.18;3.47;;;7.80;99.90;;;;;;5020297;28;20037;-61
2024/01/04 08:23:13;;;;;;;4.57;2.28;;;7.80;99.90;;;;;;5019857;28;20510;-61
2024/01/04 08:25:39;;;;;;;14.05;5.03;;;7.80;99.90;;;;;;5016156;28;20059;-61
2024/01/04 08:28:06;;;;;;;4.30;1.83;;;7.80;99.90;;;;;;5021006;28;20073;-62
2024/01/04 08:30:31;;;;;;;2.63;1.02;;;7.80;99.90;;;;;;5019673;28;20029;-61
2024/01/04 08:32:58;;;;;;;1.08;0.52;;;7.90;99.90;;;;;;5017324;28;20033;-61
2024/01/04 08:35:24;;;;;;;2.83;0.80;;;7.80;99.90;;;;;;5021720;28;20039;-61
2024/01/04 08:37:50;;;;;;;1.25;0.50;;;7.70;99.90;;;;;;5020110;28;20146;-61
2024/01/04 08:40:16;;;;;;;2.72;1.15;;;7.40;99.90;;;;;;5021411;28;20445;-61
2024/01/04 08:42:42;;;;;;;1.52;0.90;;;7.40;99.90;;;;;;5019533;28;20029;-61
2024/01/04 08:45:10;;;;;;;3.05;1.00;;;7.50;99.90;;;;;;5031665;28;20026;-62
2024/01/04 08:47:36;;;;;;;1.05;0.73;;;7.70;99.90;;;;;;5024802;28;20040;-62
2024/01/04 08:50:02;;;;;;;1.27;1.00;;;7.70;99.90;;;;;;5017597;28;20116;-61
2024/01/04 08:52:28;;;;;;;1.10;0.65;;;7.80;99.90;;;;;;5017637;28;20033;-62
2024/01/04 08:54:55;;;;;;;1.05;0.60;;;7.70;99.90;;;;;;5022224;28;20092;-61
2024/01/04 08:57:21;;;;;;;2.78;1.13;;;7.80;99.90;;;;;;5028492;28;20061;-61
2024/01/04 08:59:47;;;;;;;0.55;0.47;;;7.80;99.90;;;;;;5040962;28;20746;-62
2024/01/04 09:02:13;;;;;;;2.03;0.80;;;7.80;99.90;;;;;;5025737;28;20036;-61
2024/01/04 09:04:39;;;;;;;0.50;0.50;;;7.70;99.90;;;;;;5035632;28;20036;-61
2024/01/04 09:07:05;;;;;;;1.27;0.38;;;7.70;99.90;;;;;;5040118;28;20918;-61
2024/01/04 09:09:31;;;;;;;0.30;0.30;;;7.60;99.90;;;;;;5039949;28;20029;-62
2024/01/04 09:11:56;;;;;;;0.35;0.35;;;7.60;99.90;;;;;;5036744;28;20029;-61
2024/01/04 09:14:22;;;;;;;0.28;0.28;;;7.60;99.90;;;;;;5041414;28;20099;-60
2024/01/04 09:16:48;;;;;;;0.13;0.13;;;7.60;99.90;;;;;;5039161;28;20110;-61
2024/01/04 09:19:15;;;;;;;0.30;0.30;;;7.60;99.90;;;;;;5039237;28;20045;-60
2024/01/04 09:21:49;;;;;;;2.90;0.20;;;7.60;99.90;;;;;;5040049;28;20820;-60
2024/01/04 09:24:17;;;;;;;0.30;0.28;;;7.60;99.90;;;;;;5036981;28;20072;-60
2024/01/04 09:26:44;;;;;;;0.30;0.22;;;7.60;99.90;;;;;;5040177;28;20029;-60
2024/01/04 09:29:11;;;;;;;0.82;0.45;;;7.50;99.90;;;;;;5037954;28;20029;-60
2024/01/04 09:31:37;;;;;;;0.30;0.30;;;7.40;99.90;;;;;;5036873;28;20025;-60
2024/01/04 09:34:06;;;;;;;0.47;0.38;;;7.30;99.90;;;;;;5037474;28;20065;-60
2024/01/04 09:36:32;;;;;;;0.43;0.38;;;7.30;99.90;;;;;;5041326;28;20788;-60
2024/01/04 09:38:58;;;;;;;0.32;0.22;;;7.30;99.90;;;;;;5036929;28;20039;-61
2024/01/04 09:41:35;;;;;;;1.98;0.38;;;7.10;99.90;;;;;;5040035;28;20043;-60
2024/01/04 09:44:06;;;;;;;0.45;0.30;;;7.00;99.90;;;;;;5038295;28;20082;-60
2024/01/04 09:46:36;;;;;;;0.55;0.30;;;7.00;99.90;;;;;;5046236;28;20112;-60
2024/01/04 09:49:04;;;;;;;0.30;0.20;;;7.00;99.90;;;;;;5045346;28;20075;-60
2024/01/04 09:51:38;;;;;;;1.13;0.30;;;6.90;99.90;;;;;;5040434;28;20028;-60
2024/01/04 09:54:08;;;;;;;0.22;0.22;;;6.90;99.90;;;;;;5042909;28;20490;-60
2024/01/04 09:56:47;;;;;;;0.95;0.20;;;6.80;99.90;;;;;;5038632;28;20843;-60
2024/01/04 09:59:13;;;;;;;0.60;0.13;;;6.60;99.90;;;;;;5044933;28;20040;-60
2024/01/04 10:01:39;;;;;;;0.22;0.22;;;6.60;99.90;;;;;;5044726;28;20048;-60
2024/01/04 10:04:13;;;;;;;0.32;0.30;;;6.50;99.90;;;;;;5039649;28;20044;-60
2024/01/04 10:06:41;;;;;;;1.92;0.30;;;6.60;99.90;;;;;;5045460;28;20672;-60
2024/01/04 10:09:23;;;;;;;0.85;0.30;;;6.50;99.90;;;;;;5039000;28;20460;-60
2024/01/04 10:12:05;;;;;;;0.20;0.20;;;6.60;99.90;;;;;;5041266;28;20378;-60
2024/01/04 10:14:32;;;;;;;0.40;0.40;;;6.70;99.90;;;;;;5043077;28;20496;-61
2024/01/04 10:17:02;;;;;;;1.33;0.50;;;6.50;99.90;;;;;;5036128;28;20017;-60
2024/01/04 10:19:29;;;;;;;0.43;0.20;;;6.60;99.90;;;;;;5045765;28;20061;-61
2024/01/04 10:22:06;;;;;;;0.98;0.20;;;6.60;99.90;;;;;;5039353;28;20038;-61
2024/01/04 10:24:37;;;;;;;0.90;0.45;;;6.70;99.90;;;;;;5046919;28;20033;-61
2024/01/04 10:27:05;;;;;;;2.28;0.38;;;6.70;99.90;;;;;;5041487;28;20083;-61
2024/01/04 10:29:35;;;;;;;0.50;0.22;;;6.70;99.90;;;;;;5043513;28;20032;-60
2024/01/04 10:32:02;;;;;;;1.70;0.50;;;6.50;99.90;;;;;;5042429;28;20032;-61
2024/01/04 10:34:29;;;;;;;0.50;0.28;;;6.50;99.90;;;;;;5044851;28;20029;-61
2024/01/04 10:37:06;;;;;;;1.30;0.47;;;6.50;99.90;;;;;;5039892;28;20501;-61
2024/01/04 10:39:31;;;;;;;1.60;1.40;;;6.60;99.90;;;;;;5043000;28;20044;-61
2024/01/04 10:42:01;;;;;;;7.63;4.60;;;6.70;99.90;;;;;;5037474;28;20033;-61
2024/01/04 10:44:28;;;;;;;10.85;6.78;;;6.80;99.90;;;;;;5042612;28;20104;-60
2024/01/04 10:46:57;;;;;;;2.95;1.20;;;6.80;99.90;;;;;;5043505;28;20060;-61
2024/01/04 10:49:24;;;;;;;3.03;1.20;;;6.60;99.90;;;;;;5039554;28;20072;-61
2024/01/04 10:52:02;;;;;;;2.08;1.02;;;6.50;99.90;;;;;;5044399;28;20025;-61
2024/01/04 10:54:33;;;;;;;0.85;0.40;;;6.60;99.90;;;;;;5040788;28;20032;-61
2024/01/04 10:56:59;;;;;;;3.20;1.17;;;6.60;99.90;;;;;;5039652;28;20064;-61
2024/01/04 10:59:28;;;;;;;3.33;1.40;;;6.50;99.90;;;;;;5043917;28;20025;-60
2024/01/04 11:01:54;;;;;;;1.20;0.50;;;6.30;99.90;;;;;;5037506;28;20138;-60
2024/01/04 11:04:21;;;;;;;2.33;1.00;;;6.30;99.90;;;;;;5041850;28;20757;-61
2024/01/04 11:06:49;;;;;;;2.08;0.43;;;6.50;99.90;;;;;;5041350;28;20528;-61
2024/01/04 11:09:17;;;;;;;0.65;0.40;;;6.50;99.90;;;;;;5039001;28;20559;-60
2024/01/04 11:11:44;;;;;;;2.38;0.35;;;6.50;99.90;;;;;;5043923;28;20545;-61
2024/01/04 11:14:10;;;;;;;2.15;0.50;;;6.50;99.90;;;;;;5039709;28;20774;-61
2024/01/04 11:16:45;;;;;;;0.60;0.50;;;6.50;99.90;;;;;;5042948;28;20039;-61
2024/01/04 11:19:23;;;;;;;0.20;0.10;;;6.60;99.90;;;;;;5041721;28;20048;-60
2024/01/04 11:22:40;;;;;;;0.70;0.50;;;6.60;99.90;;;;;;5036991;28;20272;-60
2024/01/04 11:25:11;;;;;;;0.20;0.20;;;6.60;99.90;;;;;;4988826;28;20076;-60
2024/01/04 11:27:38;;;;;;;2.15;0.50;;;6.60;99.90;;;;;;5042091;28;20033;-60
2024/01/04 11:30:05;;;;;;;0.20;0.20;;;6.60;99.90;;;;;;5039581;28;20420;-60
2024/01/04 11:32:33;;;;;;;0.10;0.10;;;6.70;99.90;;;;;;5038420;28;20025;-60
2024/01/04 11:35:00;;;;;;;0.32;0.20;;;6.70;99.90;;;;;;5039168;28;20032;-60
2024/01/04 11:37:26;;;;;;;0.20;0.20;;;6.80;99.90;;;;;;5044357;28;20772;-61
2024/01/04 11:40:06;;;;;;;0.73;0.30;;;6.80;99.90;;;;;;5039023;28;20074;-61
2024/01/04 11:42:40;;;;;;;0.10;0.10;;;6.80;99.90;;;;;;5035672;28;20488;-60
2024/01/04 11:45:17;;;;;;;0.50;0.20;;;6.70;99.90;;;;;;5041729;28;20495;-61
2024/01/04 11:47:47;;;;;;;1.33;0.20;;;6.70;99.90;;;;;;5043382;28;20070;-61
2024/01/04 11:50:17;;;;;;;0.28;0.28;;;6.60;99.90;;;;;;5043374;28;20801;-60
2024/01/04 11:52:46;;;;;;;0.20;0.20;;;6.60;99.90;;;;;;5041973;28;20916;-60
2024/01/04 11:55:22;;;;;;;0.40;0.10;;;6.60;99.90;;;;;;5036531;28;20120;-60
2024/01/04 11:57:47;;;;;;;0.20;0.20;;;6.60;99.90;;;;;;5042437;28;20105;-60
2024/01/04 12:00:17;;;;;;;0.32;0.30;;;6.50;99.90;;;;;;5039260;28;20489;-60
2024/01/04 12:02:43;;;;;;;0.63;0.40;;;6.50;99.90;;;;;;5040557;28;20032;-59
2024/01/04 12:05:09;;;;;;;0.47;0.35;;;6.50;99.90;;;;;;5041010;28;20048;-61
2024/01/04 12:07:37;;;;;;;1.20;0.30;;;6.50;99.90;;;;;;5037843;28;20017;-61
2024/01/04 12:10:03;;;;;;;0.30;0.30;;;6.50;99.90;;;;;;5040856;28;20075;-61
2024/01/04 12:12:29;;;;;;;0.30;0.30;;;6.50;99.90;;;;;;5023878;28;20025;-61
2024/01/04 12:14:55;;;;;;;0.32;0.32;;;6.50;99.90;;;;;;5041389;28;20044;-61
2024/01/04 12:17:21;;;;;;;0.63;0.30;;;6.50;99.90;;;;;;5042144;28;20028;-61
2024/01/04 12:19:48;;;;;;;0.13;0.13;;;6.60;99.90;;;;;;5037892;28;20103;-61
2024/01/04 12:22:14;;;;;;;0.10;0.10;;;6.70;99.90;;;;;;5039931;28;20037;-61
2024/01/04 12:24:42;;;;;;;0.13;0.10;;;6.80;99.90;;;;;;5041058;28;20563;-62
2024/01/04 12:27:08;;;;;;;0.30;0.30;;;6.70;99.90;;;;;;5037010;28;20839;-62
2024/01/04 12:29:34;;;;;;;0.73;0.30;;;6.60;99.90;;;;;;5040663;28;20112;-61
2024/01/04 12:32:03;;;;;;;0.47;0.32;;;6.60;99.90;;;;;;5037831;28;20120;-61
2024/01/04 12:34:29;;;;;;;0.65;0.40;;;6.60;99.90;;;;;;5041205;28;20035;-60
2024/01/04 12:37:04;;;;;;;0.80;0.38;;;6.40;99.90;;;;;;5041311;28;20070;-60
2024/01/04 12:39:31;;;;;;;0.63;0.38;;;6.40;99.90;;;;;;5038427;28;20033;-60
2024/01/04 12:41:57;;;;;;;0.63;0.32;;;6.20;99.90;;;;;;5037259;28;20027;-60
2024/01/04 12:44:24;;;;;;;0.35;0.30;;;6.20;99.90;;;;;;5040462;28;20383;-60
2024/01/04 12:46:50;;;;;;;0.30;0.30;;;6.30;99.90;;;;;;5037466;28;20029;-60
2024/01/04 12:49:16;;;;;;;1.75;0.40;;;6.30;99.90;;;;;;5042337;28;20027;-60
2024/01/04 12:51:43;;;;;;;0.30;0.30;;;6.40;99.90;;;;;;5034900;28;20117;-60
2024/01/04 12:54:10;;;;;;;1.58;0.32;;;6.50;99.90;;;;;;5034359;28;20037;-60